sensor_id;sensor_type;location;lat;lon;timestamp;pressure;altitude;pressure_sealevel;temperature;humidity
56006;BME280;41888;44.696;10.522;2023-04-07T00:02:09;100604.75;;;5.17;78.30
56006;BME280;41888;44.696;10.522;2023-04-07T00:04:36;100605.06;;;5.14;79.09
56006;BME280;41888;44.696;10.522;2023-04-07T00:07:02;100605.72;;;5.00;80.22
56006;BME280;41888;44.696;10.522;2023-04-07T00:09:28;100612.31;;;5.04;80.23
56006;BME280;41888;44.696;10.522;2023-04-07T00:11:54;100604.25;;;5.22;79.39
56006;BME280;41888;44.696;10.522;2023-04-07T00:14:21;100605.41;;;5.11;80.15
56006;BME280;41888;44.696;10.522;2023-04-07T00:16:47;100603.75;;;5.26;79.38
56006;BME280;41888;44.696;10.522;2023-04-07T00:19:13;100601.28;;;5.33;78.99
56006;BME280;41888;44.696;10.522;2023-04-07T00:21:39;100594.34;;;5.16;79.29
56006;BME280;41888;44.696;10.522;2023-04-07T00:24:06;100594.53;;;5.06;79.87
56006;BME280;41888;44.696;10.522;2023-04-07T00:26:32;100596.81;;;5.09;79.43
56006;BME280;41888;44.696;10.522;2023-04-07T00:28:59;100589.09;;;4.99;80.81
56006;BME280;41888;44.696;10.522;2023-04-07T00:31:25;100593.84;;;5.04;80.68
56006;BME280;41888;44.696;10.522;2023-04-07T00:33:52;100594.69;;;4.80;81.78
56006;BME280;41888;44.696;10.522;2023-04-07T00:36:18;100588.25;;;4.91;81.82
56006;BME280;41888;44.696;10.522;2023-04-07T00:38:44;100589.41;;;4.80;82.27
56006;BME280;41888;44.696;10.522;2023-04-07T00:41:10;100590.53;;;4.78;82.21
56006;BME280;41888;44.696;10.522;2023-04-07T00:43:36;100589.22;;;4.82;82.09
56006;BME280;41888;44.696;10.522;2023-04-07T00:46:03;100584.13;;;4.80;82.06
56006;BME280;41888;44.696;10.522;2023-04-07T00:48:29;100581.00;;;4.85;82.04
56006;BME280;41888;44.696;10.522;2023-04-07T00:50:56;100583.63;;;4.93;81.46
56006;BME280;41888;44.696;10.522;2023-04-07T00:53:22;100580.03;;;5.02;80.26
56006;BME280;41888;44.696;10.522;2023-04-07T00:55:48;100568.50;;;4.95;80.89
56006;BME280;41888;44.696;10.522;2023-04-07T00:58:15;100573.09;;;4.85;81.19
56006;BME280;41888;44.696;10.522;2023-04-07T01:00:48;100572.09;;;4.94;80.70
56006;BME280;41888;44.696;10.522;2023-04-07T01:03:19;100564.84;;;4.88;81.20
56006;BME280;41888;44.696;10.522;2023-04-07T01:05:54;100568.97;;;4.74;82.06
56006;BME280;41888;44.696;10.522;2023-04-07T01:08:29;100559.41;;;4.73;82.32
56006;BME280;41888;44.696;10.522;2023-04-07T01:13:48;100546.25;;;4.89;81.12
56006;BME280;41888;44.696;10.522;2023-04-07T01:16:35;100551.00;;;5.10;79.18
56006;BME280;41888;44.696;10.522;2023-04-07T01:19:47;100558.25;;;5.08;80.23
56006;BME280;41888;44.696;10.522;2023-04-07T01:22:22;100553.34;;;4.97;81.30
56006;BME280;41888;44.696;10.522;2023-04-07T01:30:28;100539.81;;;4.84;82.55
56006;BME280;41888;44.696;10.522;2023-04-07T01:32:58;100537.34;;;4.90;81.18
56006;BME280;41888;44.696;10.522;2023-04-07T01:35:26;100525.63;;;4.60;83.64
56006;BME280;41888;44.696;10.522;2023-04-07T01:37:55;100536.50;;;4.57;84.09
56006;BME280;41888;44.696;10.522;2023-04-07T01:40:23;100532.38;;;4.47;84.64
56006;BME280;41888;44.696;10.522;2023-04-07T01:42:50;100535.50;;;4.50;84.16
56006;BME280;41888;44.696;10.522;2023-04-07T01:45:17;100536.34;;;4.59;83.34
56006;BME280;41888;44.696;10.522;2023-04-07T01:47:45;100540.13;;;4.48;84.51
56006;BME280;41888;44.696;10.522;2023-04-07T01:50:12;100534.78;;;4.24;88.35
56006;BME280;41888;44.696;10.522;2023-04-07T01:52:39;100540.69;;;4.18;89.88
56006;BME280;41888;44.696;10.522;2023-04-07T01:55:06;100544.69;;;4.22;90.75
56006;BME280;41888;44.696;10.522;2023-04-07T01:57:34;100547.28;;;4.14;90.40
56006;BME280;41888;44.696;10.522;2023-04-07T02:00:01;100553.22;;;4.24;89.71
56006;BME280;41888;44.696;10.522;2023-04-07T02:02:28;100554.00;;;4.08;91.19
56006;BME280;41888;44.696;10.522;2023-04-07T02:04:57;100552.06;;;3.76;93.12
56006;BME280;41888;44.696;10.522;2023-04-07T02:07:30;100545.41;;;3.56;94.30
56006;BME280;41888;44.696;10.522;2023-04-07T02:09:59;100543.47;;;3.66;94.14
56006;BME280;41888;44.696;10.522;2023-04-07T02:12:29;100541.47;;;3.60;94.00
56006;BME280;41888;44.696;10.522;2023-04-07T02:14:57;100552.00;;;3.60;93.65
56006;BME280;41888;44.696;10.522;2023-04-07T02:17:25;100554.44;;;3.54;95.03
56006;BME280;41888;44.696;10.522;2023-04-07T02:19:53;100546.47;;;3.37;95.92
56006;BME280;41888;44.696;10.522;2023-04-07T02:22:20;100547.13;;;3.39;96.65
56006;BME280;41888;44.696;10.522;2023-04-07T02:24:46;100542.06;;;3.46;95.91
56006;BME280;41888;44.696;10.522;2023-04-07T02:27:13;100533.84;;;3.49;95.09
56006;BME280;41888;44.696;10.522;2023-04-07T02:29:39;100542.00;;;3.64;93.80
56006;BME280;41888;44.696;10.522;2023-04-07T02:32:05;100545.34;;;3.74;92.86
56006;BME280;41888;44.696;10.522;2023-04-07T02:34:32;100541.25;;;3.79;92.49
56006;BME280;41888;44.696;10.522;2023-04-07T02:36:58;100535.66;;;3.82;92.00
56006;BME280;41888;44.696;10.522;2023-04-07T02:39:24;100551.78;;;3.79;92.29
56006;BME280;41888;44.696;10.522;2023-04-07T02:41:50;100545.34;;;3.82;91.56
56006;BME280;41888;44.696;10.522;2023-04-07T02:44:16;100549.41;;;3.68;93.14
56006;BME280;41888;44.696;10.522;2023-04-07T02:46:43;100551.16;;;3.60;93.42
56006;BME280;41888;44.696;10.522;2023-04-07T02:49:09;100547.38;;;3.54;93.56
56006;BME280;41888;44.696;10.522;2023-04-07T02:51:35;100547.38;;;3.54;92.95
56006;BME280;41888;44.696;10.522;2023-04-07T02:54:01;100556.63;;;3.66;91.84
56006;BME280;41888;44.696;10.522;2023-04-07T02:56:27;100554.97;;;3.65;91.98
56006;BME280;41888;44.696;10.522;2023-04-07T02:58:53;100552.69;;;3.70;91.67
56006;BME280;41888;44.696;10.522;2023-04-07T03:01:20;100555.53;;;3.77;91.34
56006;BME280;41888;44.696;10.522;2023-04-07T03:03:46;100552.41;;;3.73;91.08
56006;BME280;41888;44.696;10.522;2023-04-07T03:06:13;100545.47;;;3.72;91.20
56006;BME280;41888;44.696;10.522;2023-04-07T03:08:39;100547.28;;;3.72;91.06
56006;BME280;41888;44.696;10.522;2023-04-07T03:11:05;100553.38;;;3.72;91.02
56006;BME280;41888;44.696;10.522;2023-04-07T03:13:31;100551.94;;;3.78;90.58
56006;BME280;41888;44.696;10.522;2023-04-07T03:15:58;100549.41;;;3.68;91.50
56006;BME280;41888;44.696;10.522;2023-04-07T03:18:24;100554.34;;;3.71;91.55
56006;BME280;41888;44.696;10.522;2023-04-07T03:20:50;100541.88;;;3.73;91.77
56006;BME280;41888;44.696;10.522;2023-04-07T03:23:18;100549.53;;;3.59;92.75
56006;BME280;41888;44.696;10.522;2023-04-07T03:25:44;100541.44;;;3.52;93.26
56006;BME280;41888;44.696;10.522;2023-04-07T03:28:10;100540.41;;;3.45;94.25
56006;BME280;41888;44.696;10.522;2023-04-07T03:30:36;100533.59;;;3.34;95.09
56006;BME280;41888;44.696;10.522;2023-04-07T03:33:03;100533.81;;;3.15;96.60
56006;BME280;41888;44.696;10.522;2023-04-07T03:35:29;100534.94;;;2.87;100.00
56006;BME280;41888;44.696;10.522;2023-04-07T03:37:55;100529.38;;;2.90;100.00
56006;BME280;41888;44.696;10.522;2023-04-07T03:40:21;100528.22;;;3.10;98.99
56006;BME280;41888;44.696;10.522;2023-04-07T03:42:47;100534.91;;;3.30;98.05
56006;BME280;41888;44.696;10.522;2023-04-07T03:45:14;100526.41;;;3.36;97.27
56006;BME280;41888;44.696;10.522;2023-04-07T03:47:41;100528.66;;;3.31;97.14
56006;BME280;41888;44.696;10.522;2023-04-07T03:50:07;100525.97;;;3.23;96.55
56006;BME280;41888;44.696;10.522;2023-04-07T03:52:34;100525.47;;;3.20;95.77
56006;BME280;41888;44.696;10.522;2023-04-07T03:55:00;100533.25;;;3.04;97.43
56006;BME280;41888;44.696;10.522;2023-04-07T03:57:26;100528.38;;;2.91;98.69
56006;BME280;41888;44.696;10.522;2023-04-07T03:59:53;100540.19;;;2.87;99.40
56006;BME280;41888;44.696;10.522;2023-04-07T04:02:20;100536.06;;;2.84;99.76
56006;BME280;41888;44.696;10.522;2023-04-07T04:04:46;100538.25;;;2.89;99.13
56006;BME280;41888;44.696;10.522;2023-04-07T04:07:12;100547.22;;;2.86;99.53
56006;BME280;41888;44.696;10.522;2023-04-07T04:09:38;100543.50;;;2.89;99.81
56006;BME280;41888;44.696;10.522;2023-04-07T04:12:05;100547.31;;;2.94;99.31
56006;BME280;41888;44.696;10.522;2023-04-07T04:14:31;100545.34;;;2.96;99.28
56006;BME280;41888;44.696;10.522;2023-04-07T04:16:57;100543.13;;;2.84;99.87
56006;BME280;41888;44.696;10.522;2023-04-07T04:19:23;100548.78;;;2.97;99.18
56006;BME280;41888;44.696;10.522;2023-04-07T04:21:49;100544.97;;;2.91;99.37
56006;BME280;41888;44.696;10.522;2023-04-07T04:24:16;100548.25;;;2.85;100.00
56006;BME280;41888;44.696;10.522;2023-04-07T04:26:42;100553.91;;;2.98;99.06
56006;BME280;41888;44.696;10.522;2023-04-07T04:29:08;100553.22;;;2.96;98.52
56006;BME280;41888;44.696;10.522;2023-04-07T04:31:34;100553.31;;;2.87;98.97
56006;BME280;41888;44.696;10.522;2023-04-07T04:34:00;100558.19;;;3.00;98.56
56006;BME280;41888;44.696;10.522;2023-04-07T04:36:27;100562.31;;;3.02;98.17
56006;BME280;41888;44.696;10.522;2023-04-07T04:38:53;100565.94;;;2.83;100.00
56006;BME280;41888;44.696;10.522;2023-04-07T04:41:19;100553.78;;;2.82;100.00
56006;BME280;41888;44.696;10.522;2023-04-07T04:43:45;100559.25;;;3.07;99.19
56006;BME280;41888;44.696;10.522;2023-04-07T04:46:12;100565.56;;;2.96;100.00
56006;BME280;41888;44.696;10.522;2023-04-07T04:48:38;100570.41;;;3.09;99.89
56006;BME280;41888;44.696;10.522;2023-04-07T04:51:04;100570.06;;;3.29;97.51
56006;BME280;41888;44.696;10.522;2023-04-07T04:53:30;100568.94;;;3.32;96.41
56006;BME280;41888;44.696;10.522;2023-04-07T04:55:57;100579.50;;;3.40;95.31
56006;BME280;41888;44.696;10.522;2023-04-07T04:58:23;100573.47;;;3.48;93.90
56006;BME280;41888;44.696;10.522;2023-04-07T05:00:52;100571.72;;;3.56;93.39
56006;BME280;41888;44.696;10.522;2023-04-07T05:03:23;100568.84;;;3.75;91.16
56006;BME280;41888;44.696;10.522;2023-04-07T05:05:50;100564.66;;;3.65;92.16
56006;BME280;41888;44.696;10.522;2023-04-07T05:08:16;100562.31;;;3.79;91.04
56006;BME280;41888;44.696;10.522;2023-04-07T05:10:42;100554.75;;;3.85;90.71
56006;BME280;41888;44.696;10.522;2023-04-07T05:13:08;100554.59;;;4.36;87.17
56006;BME280;41888;44.696;10.522;2023-04-07T05:15:35;100560.22;;;4.65;84.26
56006;BME280;41888;44.696;10.522;2023-04-07T05:18:01;100552.34;;;5.06;80.77
56006;BME280;41888;44.696;10.522;2023-04-07T05:20:27;100558.53;;;5.45;77.59
56006;BME280;41888;44.696;10.522;2023-04-07T05:22:53;100555.09;;;6.00;74.64
56006;BME280;41888;44.696;10.522;2023-04-07T05:25:19;100553.03;;;6.41;71.76
56006;BME280;41888;44.696;10.522;2023-04-07T05:27:46;100555.50;;;6.88;68.86
56006;BME280;41888;44.696;10.522;2023-04-07T05:30:12;100548.34;;;6.97;67.07
56006;BME280;41888;44.696;10.522;2023-04-07T05:32:39;100551.31;;;7.16;66.70
56006;BME280;41888;44.696;10.522;2023-04-07T05:35:05;100543.41;;;7.75;64.21
56006;BME280;41888;44.696;10.522;2023-04-07T05:37:32;100541.19;;;7.93;62.74
56006;BME280;41888;44.696;10.522;2023-04-07T05:39:58;100537.81;;;8.14;61.59
56006;BME280;41888;44.696;10.522;2023-04-07T05:42:24;100540.34;;;8.58;59.67
56006;BME280;41888;44.696;10.522;2023-04-07T05:44:50;100538.94;;;8.62;59.19
56006;BME280;41888;44.696;10.522;2023-04-07T05:47:16;100540.13;;;9.02;58.11
56006;BME280;41888;44.696;10.522;2023-04-07T05:49:42;100538.41;;;9.78;55.63
56006;BME280;41888;44.696;10.522;2023-04-07T05:52:13;100540.84;;;9.80;55.19
56006;BME280;41888;44.696;10.522;2023-04-07T05:54:39;100536.88;;;10.10;54.00
56006;BME280;41888;44.696;10.522;2023-04-07T05:57:06;100533.59;;;10.62;52.35
56006;BME280;41888;44.696;10.522;2023-04-07T05:59:33;100532.41;;;11.30;50.04
56006;BME280;41888;44.696;10.522;2023-04-07T06:01:59;100536.50;;;11.20;50.39
56006;BME280;41888;44.696;10.522;2023-04-07T06:04:26;100539.34;;;11.38;48.82
56006;BME280;41888;44.696;10.522;2023-04-07T06:06:52;100541.22;;;11.31;49.83
56006;BME280;41888;44.696;10.522;2023-04-07T06:09:21;100544.25;;;11.28;49.34
56006;BME280;41888;44.696;10.522;2023-04-07T06:11:47;100547.06;;;11.66;48.48
56006;BME280;41888;44.696;10.522;2023-04-07T06:14:13;100554.69;;;11.42;49.11
56006;BME280;41888;44.696;10.522;2023-04-07T06:16:39;100557.53;;;10.55;51.63
56006;BME280;41888;44.696;10.522;2023-04-07T06:19:06;100565.50;;;11.87;49.24
56006;BME280;41888;44.696;10.522;2023-04-07T06:21:32;100562.88;;;11.54;49.85
56006;BME280;41888;44.696;10.522;2023-04-07T06:23:59;100554.84;;;12.69;47.91
56006;BME280;41888;44.696;10.522;2023-04-07T06:26:25;100554.94;;;13.80;45.26
56006;BME280;41888;44.696;10.522;2023-04-07T06:28:52;100558.84;;;14.32;44.11
56006;BME280;41888;44.696;10.522;2023-04-07T06:31:18;100563.19;;;14.15;43.43
56006;BME280;41888;44.696;10.522;2023-04-07T06:33:45;100554.03;;;14.83;42.06
56006;BME280;41888;44.696;10.522;2023-04-07T06:36:12;100561.50;;;13.84;43.75
56006;BME280;41888;44.696;10.522;2023-04-07T06:38:38;100552.03;;;14.66;42.40
56006;BME280;41888;44.696;10.522;2023-04-07T06:41:04;100554.72;;;15.78;40.33
56006;BME280;41888;44.696;10.522;2023-04-07T06:43:31;100555.97;;;16.38;39.29
56006;BME280;41888;44.696;10.522;2023-04-07T06:45:57;100559.97;;;18.03;36.75
56006;BME280;41888;44.696;10.522;2023-04-07T06:48:23;100555.25;;;18.59;35.64
56006;BME280;41888;44.696;10.522;2023-04-07T06:50:50;100547.84;;;19.39;34.53
56006;BME280;41888;44.696;10.522;2023-04-07T06:53:16;100551.16;;;20.76;32.36
56006;BME280;41888;44.696;10.522;2023-04-07T06:55:43;100551.69;;;20.93;32.32
56006;BME280;41888;44.696;10.522;2023-04-07T06:58:09;100541.63;;;21.70;30.66
56006;BME280;41888;44.696;10.522;2023-04-07T07:00:36;100545.38;;;21.94;30.05
56006;BME280;41888;44.696;10.522;2023-04-07T07:03:02;100545.88;;;19.30;32.45
56006;BME280;41888;44.696;10.522;2023-04-07T07:05:29;100546.53;;;19.10;34.19
56006;BME280;41888;44.696;10.522;2023-04-07T07:07:55;100539.78;;;17.62;35.50
56006;BME280;41888;44.696;10.522;2023-04-07T07:10:21;100547.63;;;16.80;36.42
56006;BME280;41888;44.696;10.522;2023-04-07T07:12:51;100546.69;;;16.46;37.02
56006;BME280;41888;44.696;10.522;2023-04-07T07:15:17;100544.81;;;16.18;37.26
56006;BME280;41888;44.696;10.522;2023-04-07T07:17:44;100545.28;;;15.75;38.32
56006;BME280;41888;44.696;10.522;2023-04-07T07:20:10;100550.06;;;15.61;39.79
56006;BME280;41888;44.696;10.522;2023-04-07T07:22:36;100547.25;;;15.45;39.94
56006;BME280;41888;44.696;10.522;2023-04-07T07:25:03;100551.44;;;15.29;40.28
56006;BME280;41888;44.696;10.522;2023-04-07T07:27:29;100543.94;;;14.85;42.96
56006;BME280;41888;44.696;10.522;2023-04-07T07:29:55;100549.19;;;14.31;45.00
56006;BME280;41888;44.696;10.522;2023-04-07T07:32:22;100539.34;;;13.77;47.17
56006;BME280;41888;44.696;10.522;2023-04-07T07:34:48;100543.19;;;14.18;43.88
56006;BME280;41888;44.696;10.522;2023-04-07T07:37:14;100547.06;;;13.85;45.47
56006;BME280;41888;44.696;10.522;2023-04-07T07:39:40;100537.97;;;13.32;46.83
56006;BME280;41888;44.696;10.522;2023-04-07T07:42:07;100535.25;;;13.14;46.49
56006;BME280;41888;44.696;10.522;2023-04-07T07:44:33;100542.81;;;13.17;47.67
56006;BME280;41888;44.696;10.522;2023-04-07T07:46:59;100547.34;;;13.41;46.77
56006;BME280;41888;44.696;10.522;2023-04-07T07:49:25;100546.97;;;13.37;45.49
56006;BME280;41888;44.696;10.522;2023-04-07T07:51:51;100547.22;;;13.72;45.93
56006;BME280;41888;44.696;10.522;2023-04-07T07:54:18;100540.81;;;13.91;44.75
56006;BME280;41888;44.696;10.522;2023-04-07T07:56:44;100542.91;;;13.89;45.36
56006;BME280;41888;44.696;10.522;2023-04-07T07:59:10;100541.25;;;14.07;44.91
56006;BME280;41888;44.696;10.522;2023-04-07T08:01:36;100543.78;;;13.65;46.88
56006;BME280;41888;44.696;10.522;2023-04-07T08:04:02;100536.97;;;13.51;46.61
56006;BME280;41888;44.696;10.522;2023-04-07T08:06:29;100532.94;;;13.42;47.20
56006;BME280;41888;44.696;10.522;2023-04-07T08:08:56;100541.34;;;13.64;47.20
56006;BME280;41888;44.696;10.522;2023-04-07T08:11:23;100535.34;;;13.68;48.86
56006;BME280;41888;44.696;10.522;2023-04-07T08:13:49;100535.63;;;13.42;47.60
56006;BME280;41888;44.696;10.522;2023-04-07T08:16:15;100535.47;;;13.37;48.64
56006;BME280;41888;44.696;10.522;2023-04-07T08:18:41;100532.13;;;13.41;47.91
56006;BME280;41888;44.696;10.522;2023-04-07T08:21:08;100536.34;;;13.49;48.76
56006;BME280;41888;44.696;10.522;2023-04-07T08:23:34;100541.25;;;13.70;47.95
56006;BME280;41888;44.696;10.522;2023-04-07T08:26:00;100540.53;;;13.63;47.64
56006;BME280;41888;44.696;10.522;2023-04-07T08:28:26;100533.50;;;13.69;47.71
56006;BME280;41888;44.696;10.522;2023-04-07T08:30:53;100535.63;;;13.96;46.60
56006;BME280;41888;44.696;10.522;2023-04-07T08:33:19;100527.66;;;14.08;47.14
56006;BME280;41888;44.696;10.522;2023-04-07T08:35:45;100533.03;;;13.72;47.18
56006;BME280;41888;44.696;10.522;2023-04-07T08:38:12;100538.06;;;13.98;46.73
56006;BME280;41888;44.696;10.522;2023-04-07T08:40:38;100533.19;;;13.95;46.37
56006;BME280;41888;44.696;10.522;2023-04-07T08:43:08;100541.72;;;14.04;46.51
56006;BME280;41888;44.696;10.522;2023-04-07T08:45:39;100542.81;;;14.32;46.21
56006;BME280;41888;44.696;10.522;2023-04-07T08:48:17;100538.50;;;14.61;46.79
56006;BME280;41888;44.696;10.522;2023-04-07T08:50:48;100533.31;;;14.78;45.67
56006;BME280;41888;44.696;10.522;2023-04-07T08:53:22;100531.34;;;14.97;45.74
56006;BME280;41888;44.696;10.522;2023-04-07T08:55:49;100530.00;;;15.06;45.13
56006;BME280;41888;44.696;10.522;2023-04-07T08:58:15;100532.19;;;14.86;45.07
56006;BME280;41888;44.696;10.522;2023-04-07T09:00:46;100529.09;;;14.70;45.38
56006;BME280;41888;44.696;10.522;2023-04-07T09:03:15;100523.72;;;14.70;45.61
56006;BME280;41888;44.696;10.522;2023-04-07T09:05:44;100524.13;;;14.86;46.84
56006;BME280;41888;44.696;10.522;2023-04-07T09:08:11;100525.88;;;14.92;46.36
56006;BME280;41888;44.696;10.522;2023-04-07T09:10:37;100521.09;;;14.94;45.78
56006;BME280;41888;44.696;10.522;2023-04-07T09:13:03;100518.78;;;14.86;45.93
56006;BME280;41888;44.696;10.522;2023-04-07T09:15:30;100520.03;;;14.83;46.02
56006;BME280;41888;44.696;10.522;2023-04-07T09:17:57;100517.41;;;15.06;45.30
56006;BME280;41888;44.696;10.522;2023-04-07T09:20:24;100522.53;;;15.31;45.06
56006;BME280;41888;44.696;10.522;2023-04-07T09:22:50;100518.66;;;15.50;44.16
56006;BME280;41888;44.696;10.522;2023-04-07T09:25:19;100518.22;;;15.30;43.14
56006;BME280;41888;44.696;10.522;2023-04-07T09:27:58;100514.03;;;15.69;42.87
56006;BME280;41888;44.696;10.522;2023-04-07T09:30:25;100509.34;;;15.76;42.13
56006;BME280;41888;44.696;10.522;2023-04-07T09:32:52;100507.22;;;15.90;43.94
56006;BME280;41888;44.696;10.522;2023-04-07T09:35:18;100499.78;;;15.80;43.47
56006;BME280;41888;44.696;10.522;2023-04-07T09:40:28;100503.66;;;15.38;41.60
56006;BME280;41888;44.696;10.522;2023-04-07T09:42:54;100495.13;;;15.41;41.31
56006;BME280;41888;44.696;10.522;2023-04-07T09:45:27;100506.09;;;15.51;41.38
56006;BME280;41888;44.696;10.522;2023-04-07T09:47:54;100500.50;;;15.41;41.12
56006;BME280;41888;44.696;10.522;2023-04-07T09:50:34;100491.28;;;15.48;40.85
56006;BME280;41888;44.696;10.522;2023-04-07T09:53:01;100487.06;;;15.76;40.95
56006;BME280;41888;44.696;10.522;2023-04-07T09:55:30;100482.19;;;16.29;41.97
56006;BME280;41888;44.696;10.522;2023-04-07T09:57:56;100482.69;;;16.55;40.99
56006;BME280;41888;44.696;10.522;2023-04-07T10:00:23;100472.78;;;16.27;41.06
56006;BME280;41888;44.696;10.522;2023-04-07T10:02:50;100479.72;;;16.56;39.55
56006;BME280;41888;44.696;10.522;2023-04-07T10:05:18;100471.81;;;16.33;39.31
56006;BME280;41888;44.696;10.522;2023-04-07T10:07:46;100471.22;;;16.02;38.92
56006;BME280;41888;44.696;10.522;2023-04-07T10:10:13;100473.66;;;16.61;39.52
56006;BME280;41888;44.696;10.522;2023-04-07T10:12:40;100471.06;;;16.66;39.33
56006;BME280;41888;44.696;10.522;2023-04-07T10:15:07;100469.44;;;16.65;39.32
56006;BME280;41888;44.696;10.522;2023-04-07T10:17:34;100464.72;;;16.88;38.83
56006;BME280;41888;44.696;10.522;2023-04-07T10:20:04;100459.34;;;16.72;36.92
56006;BME280;41888;44.696;10.522;2023-04-07T10:22:32;100467.16;;;16.73;38.25
56006;BME280;41888;44.696;10.522;2023-04-07T10:25:09;100454.13;;;16.82;38.62
56006;BME280;41888;44.696;10.522;2023-04-07T10:27:44;100448.66;;;16.15;40.83
56006;BME280;41888;44.696;10.522;2023-04-07T10:30:19;100444.84;;;16.73;39.99
56006;BME280;41888;44.696;10.522;2023-04-07T10:32:51;100441.19;;;16.17;40.61
56006;BME280;41888;44.696;10.522;2023-04-07T10:35:19;100445.53;;;16.52;39.79
56006;BME280;41888;44.696;10.522;2023-04-07T10:38:11;100435.13;;;16.38;39.24
56006;BME280;41888;44.696;10.522;2023-04-07T10:40:39;100438.53;;;16.51;38.89
56006;BME280;41888;44.696;10.522;2023-04-07T10:43:07;100431.84;;;16.65;38.38
56006;BME280;41888;44.696;10.522;2023-04-07T10:48:20;100434.13;;;16.44;38.27
56006;BME280;41888;44.696;10.522;2023-04-07T10:53:35;100433.81;;;15.56;38.33
56006;BME280;41888;44.696;10.522;2023-04-07T10:56:03;100414.41;;;15.14;39.15
56006;BME280;41888;44.696;10.522;2023-04-07T10:58:33;100416.34;;;15.30;40.27
56006;BME280;41888;44.696;10.522;2023-04-07T11:03:30;100399.84;;;15.21;37.67
56006;BME280;41888;44.696;10.522;2023-04-07T11:06:10;100396.22;;;15.16;38.44
56006;BME280;41888;44.696;10.522;2023-04-07T11:08:47;100405.63;;;15.30;38.89
56006;BME280;41888;44.696;10.522;2023-04-07T11:11:19;100404.81;;;15.53;38.96
56006;BME280;41888;44.696;10.522;2023-04-07T11:13:47;100398.81;;;15.62;38.49
56006;BME280;41888;44.696;10.522;2023-04-07T11:16:16;100397.56;;;15.82;38.44
56006;BME280;41888;44.696;10.522;2023-04-07T11:18:43;100396.47;;;15.94;37.79
56006;BME280;41888;44.696;10.522;2023-04-07T11:21:10;100395.53;;;16.00;37.76
56006;BME280;41888;44.696;10.522;2023-04-07T11:23:41;100395.13;;;16.09;38.23
56006;BME280;41888;44.696;10.522;2023-04-07T11:26:09;100395.97;;;16.26;38.06
56006;BME280;41888;44.696;10.522;2023-04-07T11:28:44;100387.59;;;16.56;38.34
56006;BME280;41888;44.696;10.522;2023-04-07T11:31:11;100391.91;;;16.57;37.58
56006;BME280;41888;44.696;10.522;2023-04-07T11:33:39;100389.84;;;16.59;37.57
56006;BME280;41888;44.696;10.522;2023-04-07T11:36:06;100388.59;;;16.50;37.72
56006;BME280;41888;44.696;10.522;2023-04-07T11:38:36;100384.75;;;16.12;36.71
56006;BME280;41888;44.696;10.522;2023-04-07T11:41:11;100384.53;;;15.85;37.07
56006;BME280;41888;44.696;10.522;2023-04-07T11:43:37;100388.94;;;15.51;37.42
56006;BME280;41888;44.696;10.522;2023-04-07T11:46:16;100384.91;;;15.26;38.15
56006;BME280;41888;44.696;10.522;2023-04-07T11:48:44;100388.19;;;15.68;36.70
56006;BME280;41888;44.696;10.522;2023-04-07T11:51:21;100384.34;;;15.75;37.49
56006;BME280;41888;44.696;10.522;2023-04-07T11:53:54;100383.31;;;15.93;36.74
56006;BME280;41888;44.696;10.522;2023-04-07T11:56:21;100386.84;;;16.10;36.86
56006;BME280;41888;44.696;10.522;2023-04-07T11:58:51;100381.47;;;16.10;37.64
56006;BME280;41888;44.696;10.522;2023-04-07T12:01:18;100387.97;;;16.14;37.22
56006;BME280;41888;44.696;10.522;2023-04-07T12:04:01;100386.09;;;16.15;37.90
56006;BME280;41888;44.696;10.522;2023-04-07T12:06:35;100387.25;;;16.02;38.14
56006;BME280;41888;44.696;10.522;2023-04-07T12:09:07;100384.72;;;15.95;38.66
56006;BME280;41888;44.696;10.522;2023-04-07T12:11:34;100384.25;;;15.87;38.41
56006;BME280;41888;44.696;10.522;2023-04-07T12:14:01;100382.56;;;15.81;38.36
56006;BME280;41888;44.696;10.522;2023-04-07T12:16:30;100377.44;;;15.79;38.49
56006;BME280;41888;44.696;10.522;2023-04-07T12:18:56;100382.56;;;15.81;38.40
56006;BME280;41888;44.696;10.522;2023-04-07T12:21:23;100375.94;;;15.72;38.81
56006;BME280;41888;44.696;10.522;2023-04-07T12:23:51;100391.59;;;15.63;38.78
56006;BME280;41888;44.696;10.522;2023-04-07T12:26:17;100385.09;;;15.59;39.10
56006;BME280;41888;44.696;10.522;2023-04-07T12:28:44;100381.81;;;15.45;39.44
56006;BME280;41888;44.696;10.522;2023-04-07T12:31:10;100377.31;;;15.34;39.29
56006;BME280;41888;44.696;10.522;2023-04-07T12:33:36;100381.06;;;15.33;39.79
56006;BME280;41888;44.696;10.522;2023-04-07T12:36:02;100379.22;;;15.22;40.02
56006;BME280;41888;44.696;10.522;2023-04-07T12:38:29;100381.06;;;15.33;39.61
56006;BME280;41888;44.696;10.522;2023-04-07T12:40:55;100385.50;;;15.28;39.36
56006;BME280;41888;44.696;10.522;2023-04-07T12:43:28;100383.19;;;15.08;39.38
56006;BME280;41888;44.696;10.522;2023-04-07T12:45:54;100374.13;;;14.86;39.27
56006;BME280;41888;44.696;10.522;2023-04-07T12:48:21;100375.63;;;14.82;39.80
56006;BME280;41888;44.696;10.522;2023-04-07T12:50:47;100379.50;;;14.74;39.18
56006;BME280;41888;44.696;10.522;2023-04-07T12:53:13;100377.25;;;14.71;39.20
56006;BME280;41888;44.696;10.522;2023-04-07T12:55:39;100374.94;;;14.63;39.25
56006;BME280;41888;44.696;10.522;2023-04-07T12:58:07;100373.41;;;14.55;39.46
56006;BME280;41888;44.696;10.522;2023-04-07T13:00:34;100375.75;;;14.52;39.59
56006;BME280;41888;44.696;10.522;2023-04-07T13:03:00;100374.00;;;14.57;39.83
56006;BME280;41888;44.696;10.522;2023-04-07T13:05:28;100369.78;;;14.50;39.86
56006;BME280;41888;44.696;10.522;2023-04-07T13:07:54;100371.78;;;14.43;39.76